Time;durP1;ratioP1;P1;durP2;ratioP2;P2;SDS_P1;SDS_P2;PMS_P1;PMS_P2;Temp;Humidity;BMP_temperature;BMP_pressure;BME280_temperature;BME280_humidity;BME280_pressure;Samples;Min_cycle;Max_cycle;Signal;HPM_P1;HPM_P2
2022/05/06 00:00:42;;;;;;;318.67;112.17;;;;;;;;;;5035387;28;20497;-71
2022/05/06 00:03:10;;;;;;;312.63;107.87;;;;;;;;;;5035540;28;20470;-71
2022/05/06 00:05:38;;;;;;;332.33;110.07;;;;;;;;;;5035427;28;20544;-71
2022/05/06 00:08:06;;;;;;;309.13;118.67;;;;;;;;;;5035128;28;20477;-71
2022/05/06 00:10:37;;;;;;;305.73;108.47;;;;;;;;;;5035934;28;20524;-71
2022/05/06 00:13:05;;;;;;;326.20;113.77;;;;;;;;;;5036284;28;20462;-71
2022/05/06 00:15:33;;;;;;;307.87;112.47;;;;;;;;;;5034860;28;20458;-71
2022/05/06 00:18:02;;;;;;;325.30;108.77;;;;;;;;;;5028422;28;20470;-70
2022/05/06 00:20:30;;;;;;;320.83;112.10;;;;;;;;;;5035539;28;20480;-71
2022/05/06 00:22:59;;;;;;;305.93;106.10;;;;;;;;;;5035825;28;20462;-71
2022/05/06 00:25:27;;;;;;;330.47;105.30;;;;;;;;;;5027515;28;20499;-71
2022/05/06 00:27:55;;;;;;;340.07;111.97;;;;;;;;;;5027035;28;20509;-71
2022/05/06 00:30:23;;;;;;;327.33;105.77;;;;;;;;;;5035744;28;20473;-71
2022/05/06 00:32:51;;;;;;;319.63;105.43;;;;;;;;;;5035063;28;20454;-71
2022/05/06 00:35:20;;;;;;;339.63;109.37;;;;;;;;;;5027139;28;20637;-71
2022/05/06 00:37:48;;;;;;;338.10;101.10;;;;;;;;;;5035217;28;20514;-71
2022/05/06 00:40:16;;;;;;;330.20;104.50;;;;;;;;;;5034000;28;21155;-71
2022/05/06 00:42:44;;;;;;;348.03;106.90;;;;;;;;;;5035202;28;20493;-71
2022/05/06 00:45:12;;;;;;;335.10;106.47;;;;;;;;;;5034195;28;20473;-69
2022/05/06 00:47:40;;;;;;;275.73;109.40;;;;;;;;;;5033954;28;21056;-70
2022/05/06 00:50:08;;;;;;;293.60;106.30;;;;;;;;;;5034940;28;20755;-71
2022/05/06 00:52:37;;;;;;;308.43;103.70;;;;;;;;;;5033405;28;20450;-71
2022/05/06 00:55:06;;;;;;;318.83;101.17;;;;;;;;;;5034659;28;20951;-71
2022/05/06 00:57:34;;;;;;;320.73;115.13;;;;;;;;;;5034051;28;20482;-71
2022/05/06 01:00:20;;;;;;;334.83;111.27;;;;;;;;;;5034243;28;20470;-71
2022/05/06 01:02:48;;;;;;;287.60;104.10;;;;;;;;;;5033639;28;20473;-71
2022/05/06 01:05:16;;;;;;;336.93;105.43;;;;;;;;;;5034622;28;20466;-71
2022/05/06 01:07:49;;;;;;;331.07;102.37;;;;;;;;;;5034028;28;20462;-71
2022/05/06 01:10:18;;;;;;;302.70;102.97;;;;;;;;;;5034676;28;20458;-71
2022/05/06 01:12:46;;;;;;;308.47;103.47;;;;;;;;;;5034068;28;20481;-71
2022/05/06 01:15:20;;;;;;;308.03;101.77;;;;;;;;;;5034265;28;20553;-71
2022/05/06 01:17:48;;;;;;;314.73;101.40;;;;;;;;;;5034876;28;20961;-71
2022/05/06 01:20:17;;;;;;;294.90;107.77;;;;;;;;;;5033258;28;20458;-71
2022/05/06 01:22:49;;;;;;;280.87;97.20;;;;;;;;;;5026225;28;20891;-71
2022/05/06 01:25:17;;;;;;;291.17;104.77;;;;;;;;;;5034144;28;20557;-71
2022/05/06 01:27:47;;;;;;;289.40;97.23;;;;;;;;;;5034845;28;20458;-71
2022/05/06 01:30:22;;;;;;;322.43;101.93;;;;;;;;;;5035373;28;20753;-71
2022/05/06 01:35:46;;;;;;;338.30;105.80;;;;;;;;;;5034162;28;20453;-71
2022/05/06 01:38:18;;;;;;;318.63;99.40;;;;;;;;;;5025904;28;20471;-71
2022/05/06 01:40:49;;;;;;;322.33;99.47;;;;;;;;;;5033911;28;20488;-71
2022/05/06 01:43:18;;;;;;;338.73;97.87;;;;;;;;;;5033902;28;20459;-71
2022/05/06 01:45:47;;;;;;;350.00;104.17;;;;;;;;;;5033426;28;20739;-71
2022/05/06 01:48:16;;;;;;;308.33;104.57;;;;;;;;;;5034605;28;20547;-71
2022/05/06 01:50:45;;;;;;;329.97;104.03;;;;;;;;;;5035866;28;20458;-71
2022/05/06 01:53:14;;;;;;;323.47;96.37;;;;;;;;;;5033594;28;20468;-71
2022/05/06 01:55:43;;;;;;;315.20;95.00;;;;;;;;;;5035641;28;20543;-71
2022/05/06 01:58:13;;;;;;;328.10;101.97;;;;;;;;;;5034129;28;20466;-70
2022/05/06 02:00:41;;;;;;;323.90;99.37;;;;;;;;;;5033916;28;20482;-70
2022/05/06 02:05:16;;;;;;;329.93;99.00;;;;;;;;;;5027407;28;20528;-70
2022/05/06 02:05:57;;;;;;;332.37;102.00;;;;;;;;;;5037802;28;20442;-70
2022/05/06 02:08:28;;;;;;;349.00;105.40;;;;;;;;;;5034460;28;20470;-70
2022/05/06 02:10:57;;;;;;;309.20;96.70;;;;;;;;;;5034542;28;20561;-70
2022/05/06 02:13:25;;;;;;;331.87;102.37;;;;;;;;;;5030838;28;20474;-71
2022/05/06 02:15:53;;;;;;;338.87;101.27;;;;;;;;;;5037320;28;20534;-70
2022/05/06 02:18:21;;;;;;;324.00;100.30;;;;;;;;;;5038612;28;20989;-70
2022/05/06 02:20:48;;;;;;;351.23;96.97;;;;;;;;;;5037699;28;20577;-70
2022/05/06 02:23:16;;;;;;;316.43;92.70;;;;;;;;;;5038849;28;20464;-70
2022/05/06 02:25:44;;;;;;;334.27;97.47;;;;;;;;;;5037946;28;20478;-70
2022/05/06 02:28:14;;;;;;;320.40;100.77;;;;;;;;;;5035907;28;20465;-70
2022/05/06 02:33:28;;;;;;;294.17;94.53;;;;;;;;;;5036715;28;20462;-70
2022/05/06 02:35:56;;;;;;;313.63;99.93;;;;;;;;;;5036499;28;20775;-71
2022/05/06 02:38:25;;;;;;;317.67;99.27;;;;;;;;;;5039119;28;20502;-70
2022/05/06 02:40:53;;;;;;;313.90;92.07;;;;;;;;;;5040009;28;20536;-72
2022/05/06 02:43:25;;;;;;;318.70;97.10;;;;;;;;;;5036119;28;20535;-71
2022/05/06 02:45:53;;;;;;;317.27;94.77;;;;;;;;;;5038665;28;20459;-71
2022/05/06 02:48:21;;;;;;;326.73;95.63;;;;;;;;;;5022077;28;20534;-72
2022/05/06 02:50:49;;;;;;;308.10;91.73;;;;;;;;;;5037158;28;20454;-72
2022/05/06 02:53:16;;;;;;;318.70;95.87;;;;;;;;;;5036573;28;20558;-72
2022/05/06 02:55:44;;;;;;;296.03;94.40;;;;;;;;;;5032515;28;20463;-71
2022/05/06 02:58:16;;;;;;;315.57;96.73;;;;;;;;;;5033125;28;20476;-71
2022/05/06 03:00:45;;;;;;;319.23;102.07;;;;;;;;;;5036161;28;20470;-71
2022/05/06 03:03:12;;;;;;;295.10;93.90;;;;;;;;;;5036332;28;20454;-71
2022/05/06 03:05:40;;;;;;;328.23;93.47;;;;;;;;;;5028321;28;20461;-71
2022/05/06 03:08:08;;;;;;;356.97;99.90;;;;;;;;;;5036280;28;20808;-71
2022/05/06 03:10:36;;;;;;;360.77;94.27;;;;;;;;;;5036287;28;20481;-71
2022/05/06 03:13:04;;;;;;;368.03;96.47;;;;;;;;;;5036312;28;20545;-71
2022/05/06 03:15:32;;;;;;;363.53;97.27;;;;;;;;;;5042520;28;20461;-71
2022/05/06 03:18:01;;;;;;;358.33;98.27;;;;;;;;;;5035910;28;20941;-71
2022/05/06 03:20:29;;;;;;;288.17;93.40;;;;;;;;;;5036358;28;20458;-71
2022/05/06 03:22:57;;;;;;;338.23;93.60;;;;;;;;;;5036348;28;20514;-71
2022/05/06 03:25:25;;;;;;;365.07;95.63;;;;;;;;;;5035794;28;20531;-71
2022/05/06 03:28:07;;;;;;;350.77;94.43;;;;;;;;;;5028769;28;21001;-71
2022/05/06 03:30:39;;;;;;;333.57;91.60;;;;;;;;;;5035396;28;20459;-71
2022/05/06 03:33:09;;;;;;;341.63;95.23;;;;;;;;;;5036326;28;20489;-71
2022/05/06 03:35:41;;;;;;;342.93;93.90;;;;;;;;;;5028898;28;20489;-71
2022/05/06 03:38:09;;;;;;;352.10;100.40;;;;;;;;;;5034587;28;20541;-71
2022/05/06 03:40:38;;;;;;;357.37;102.03;;;;;;;;;;5035199;28;20527;-71
2022/05/06 03:43:06;;;;;;;331.47;94.17;;;;;;;;;;5035526;28;20492;-71
2022/05/06 03:45:36;;;;;;;298.17;94.53;;;;;;;;;;5034996;28;20469;-71
2022/05/06 03:48:04;;;;;;;287.33;96.73;;;;;;;;;;5035199;28;20451;-71
2022/05/06 03:53:18;;;;;;;317.93;96.30;;;;;;;;;;5027060;28;20445;-71
2022/05/06 03:55:46;;;;;;;302.33;92.13;;;;;;;;;;5035025;28;20498;-71
2022/05/06 04:01:35;;;;;;;315.17;96.90;;;;;;;;;;4928926;29;20490;-69
2022/05/06 04:07:39;;;;;;;294.23;89.13;;;;;;;;;;4861828;29;20868;-72
2022/05/06 04:13:38;;;;;;;338.20;93.00;;;;;;;;;;4958154;28;20558;-71
2022/05/06 04:25:35;;;;;;;349.67;93.60;;;;;;;;;;5060845;28;20479;-71
2022/05/06 04:28:03;;;;;;;352.27;94.30;;;;;;;;;;5072914;28;20461;-71
2022/05/06 04:30:31;;;;;;;352.13;95.57;;;;;;;;;;5075590;28;20456;-71
2022/05/06 04:32:59;;;;;;;362.80;98.50;;;;;;;;;;5060793;28;20491;-71
2022/05/06 04:35:29;;;;;;;347.80;92.63;;;;;;;;;;5067055;28;20457;-71
2022/05/06 04:38:00;;;;;;;309.13;88.80;;;;;;;;;;5061001;28;20550;-71
2022/05/06 04:40:33;;;;;;;335.57;114.30;;;;;;;;;;5073333;28;20492;-71
2022/05/06 04:43:03;;;;;;;362.63;100.70;;;;;;;;;;5072912;28;21155;-71
2022/05/06 04:45:38;;;;;;;357.63;96.97;;;;;;;;;;5067598;28;20466;-71
2022/05/06 04:48:06;;;;;;;339.10;98.43;;;;;;;;;;5065815;28;20938;-71
2022/05/06 04:50:40;;;;;;;328.03;103.60;;;;;;;;;;5073113;28;20487;-71
2022/05/06 04:53:09;;;;;;;357.87;103.40;;;;;;;;;;5074476;28;20459;-71
2022/05/06 04:55:38;;;;;;;361.53;106.57;;;;;;;;;;5073859;28;20456;-71
2022/05/06 04:58:10;;;;;;;379.87;108.77;;;;;;;;;;5072942;28;20510;-71
2022/05/06 05:00:38;;;;;;;361.03;102.53;;;;;;;;;;5066295;28;20476;-71
2022/05/06 05:03:06;;;;;;;370.13;109.77;;;;;;;;;;5066604;28;20850;-71
2022/05/06 05:05:33;;;;;;;369.77;119.80;;;;;;;;;;5072029;28;20563;-71
2022/05/06 05:08:01;;;;;;;395.90;123.57;;;;;;;;;;5072251;28;20556;-71
2022/05/06 05:10:29;;;;;;;384.23;119.43;;;;;;;;;;5071891;28;20457;-71
2022/05/06 05:12:57;;;;;;;372.90;131.97;;;;;;;;;;5060553;28;20724;-71
2022/05/06 05:15:27;;;;;;;301.57;147.00;;;;;;;;;;5059445;28;20470;-71
2022/05/06 05:18:03;;;;;;;302.77;134.23;;;;;;;;;;5056204;28;20507;-72
2022/05/06 05:20:32;;;;;;;287.63;127.77;;;;;;;;;;5064296;28;20464;-71
2022/05/06 05:23:02;;;;;;;338.70;143.60;;;;;;;;;;5071967;28;21075;-71
2022/05/06 05:25:30;;;;;;;383.23;145.67;;;;;;;;;;5070458;28;20461;-71
2022/05/06 05:27:58;;;;;;;377.17;151.57;;;;;;;;;;5059086;28;20475;-71
2022/05/06 05:30:27;;;;;;;329.87;138.53;;;;;;;;;;5070160;28;20456;-71
2022/05/06 05:32:56;;;;;;;352.73;145.87;;;;;;;;;;5055151;28;20781;-71
2022/05/06 05:35:24;;;;;;;370.73;137.07;;;;;;;;;;5068700;28;20575;-71
2022/05/06 05:37:53;;;;;;;389.10;152.80;;;;;;;;;;5071642;28;20445;-72
2022/05/06 05:40:23;;;;;;;402.13;177.53;;;;;;;;;;5073823;28;20463;-71
2022/05/06 05:42:51;;;;;;;399.23;178.03;;;;;;;;;;5074242;28;20918;-71
2022/05/06 05:50:56;;;;;;;409.17;185.20;;;;;;;;;;5066334;28;20445;-71
2022/05/06 05:53:24;;;;;;;409.37;184.20;;;;;;;;;;5075344;28;20724;-71
2022/05/06 05:55:52;;;;;;;415.37;190.90;;;;;;;;;;5081610;28;20482;-71
2022/05/06 05:58:23;;;;;;;413.27;191.43;;;;;;;;;;5073232;28;20448;-71
2022/05/06 06:00:51;;;;;;;412.10;180.33;;;;;;;;;;5045856;28;20468;-71
2022/05/06 06:03:20;;;;;;;424.53;209.03;;;;;;;;;;5075346;28;20492;-71
2022/05/06 06:05:48;;;;;;;414.37;186.23;;;;;;;;;;5074397;28;20551;-71
2022/05/06 06:08:17;;;;;;;425.73;206.90;;;;;;;;;;5074101;28;20963;-72
2022/05/06 06:10:45;;;;;;;422.97;200.17;;;;;;;;;;5068769;28;20472;-72
2022/05/06 06:13:13;;;;;;;419.40;190.90;;;;;;;;;;5071220;28;20460;-71
2022/05/06 06:15:40;;;;;;;377.43;192.30;;;;;;;;;;5069128;28;20496;-71
2022/05/06 06:18:16;;;;;;;425.60;190.23;;;;;;;;;;5074135;28;20554;-71
2022/05/06 06:20:46;;;;;;;413.23;172.70;;;;;;;;;;5073339;28;20460;-71
2022/05/06 06:23:14;;;;;;;411.10;156.67;;;;;;;;;;5071993;28;21161;-71
2022/05/06 06:25:42;;;;;;;366.60;159.77;;;;;;;;;;5053439;28;20506;-70
2022/05/06 06:28:09;;;;;;;405.10;151.43;;;;;;;;;;5072840;28;20459;-70
2022/05/06 06:30:37;;;;;;;413.00;161.83;;;;;;;;;;5075492;28;20518;-71
2022/05/06 06:33:05;;;;;;;403.03;146.73;;;;;;;;;;5075729;28;20467;-70
2022/05/06 06:35:36;;;;;;;368.70;153.17;;;;;;;;;;5075458;28;20872;-70
2022/05/06 06:38:06;;;;;;;347.93;151.10;;;;;;;;;;5075459;28;20548;-71
2022/05/06 06:40:34;;;;;;;361.63;150.33;;;;;;;;;;5074394;28;20468;-70
2022/05/06 06:43:08;;;;;;;366.07;136.37;;;;;;;;;;5074393;28;20527;-71
2022/05/06 06:45:36;;;;;;;366.80;146.80;;;;;;;;;;5062086;28;20474;-71
2022/05/06 06:48:04;;;;;;;347.60;132.93;;;;;;;;;;5076241;28;20472;-71
2022/05/06 06:50:32;;;;;;;370.13;137.13;;;;;;;;;;5074827;28;20797;-71
2022/05/06 06:53:03;;;;;;;359.83;142.43;;;;;;;;;;5074961;28;20460;-71
2022/05/06 06:55:33;;;;;;;411.17;165.50;;;;;;;;;;5076649;28;20543;-74
2022/05/06 06:58:02;;;;;;;373.63;140.20;;;;;;;;;;5075483;28;20464;-71
2022/05/06 07:00:34;;;;;;;398.37;153.47;;;;;;;;;;5075145;28;20895;-72
2022/05/06 07:03:05;;;;;;;394.37;158.63;;;;;;;;;;5075295;28;20803;-72
2022/05/06 07:05:33;;;;;;;386.10;156.97;;;;;;;;;;5060308;28;20837;-71
2022/05/06 07:13:34;;;;;;;387.67;149.73;;;;;;;;;;5074405;28;20448;-72
2022/05/06 07:16:02;;;;;;;388.73;155.80;;;;;;;;;;5067496;28;20472;-72
2022/05/06 07:18:30;;;;;;;382.87;146.57;;;;;;;;;;5074946;28;20456;-72
2022/05/06 07:20:58;;;;;;;407.70;164.47;;;;;;;;;;5066356;28;20444;-72
2022/05/06 07:23:25;;;;;;;342.57;170.90;;;;;;;;;;5073219;28;20537;-72
2022/05/06 07:25:55;;;;;;;395.60;161.17;;;;;;;;;;5073724;28;21207;-72
2022/05/06 07:28:26;;;;;;;391.50;157.70;;;;;;;;;;5074847;28;20573;-72
2022/05/06 07:30:54;;;;;;;374.80;164.17;;;;;;;;;;5073702;28;20491;-73
2022/05/06 07:33:22;;;;;;;390.00;175.53;;;;;;;;;;5073387;28;20471;-73
2022/05/06 07:35:50;;;;;;;388.23;164.13;;;;;;;;;;5057440;28;20838;-72
2022/05/06 07:38:20;;;;;;;387.23;176.60;;;;;;;;;;5066333;28;20467;-72
2022/05/06 07:40:48;;;;;;;355.40;175.97;;;;;;;;;;5073112;28;20548;-72
2022/05/06 07:43:17;;;;;;;408.03;176.83;;;;;;;;;;5073356;28;20938;-72
2022/05/06 07:45:45;;;;;;;379.03;167.10;;;;;;;;;;5064644;28;20839;-71
2022/05/06 07:48:13;;;;;;;408.13;187.50;;;;;;;;;;5070613;28;20453;-72
2022/05/06 07:50:44;;;;;;;411.37;188.57;;;;;;;;;;5079578;28;20478;-73
2022/05/06 07:53:13;;;;;;;384.00;168.93;;;;;;;;;;5065514;28;20461;-73
2022/05/06 07:55:41;;;;;;;389.03;175.57;;;;;;;;;;5072209;28;20453;-72
2022/05/06 07:58:13;;;;;;;396.03;175.63;;;;;;;;;;5073392;28;20475;-73
2022/05/06 08:00:50;;;;;;;314.37;208.57;;;;;;;;;;5072674;28;20821;-73
2022/05/06 08:06:16;;;;;;;387.50;189.23;;;;;;;;;;5012624;28;20453;-74
2022/05/06 08:08:45;;;;;;;389.40;179.37;;;;;;;;;;5067519;28;20475;-74
2022/05/06 08:11:13;;;;;;;369.27;198.80;;;;;;;;;;5058353;28;20488;-73
2022/05/06 08:13:41;;;;;;;342.43;193.47;;;;;;;;;;5052992;28;20466;-74
2022/05/06 08:16:11;;;;;;;349.07;214.40;;;;;;;;;;5072427;28;20469;-74
2022/05/06 08:18:39;;;;;;;312.87;218.17;;;;;;;;;;5072081;28;20499;-73
2022/05/06 08:21:07;;;;;;;309.97;198.53;;;;;;;;;;5067445;28;20452;-73
2022/05/06 08:23:36;;;;;;;325.17;211.30;;;;;;;;;;5071270;28;20511;-73
2022/05/06 08:26:13;;;;;;;390.43;216.20;;;;;;;;;;5073646;28;20471;-71
2022/05/06 08:28:41;;;;;;;339.90;214.90;;;;;;;;;;5073911;28;20456;-72
2022/05/06 08:31:09;;;;;;;358.80;225.60;;;;;;;;;;5073083;28;20806;-72
2022/05/06 08:33:39;;;;;;;324.60;214.37;;;;;;;;;;5073131;28;20460;-72
2022/05/06 08:36:08;;;;;;;330.60;226.17;;;;;;;;;;5074183;28;20476;-72
2022/05/06 08:38:36;;;;;;;369.93;232.87;;;;;;;;;;5072700;28;20468;-72
2022/05/06 08:41:08;;;;;;;359.13;211.23;;;;;;;;;;5073114;28;20453;-71
2022/05/06 08:43:43;;;;;;;354.67;225.47;;;;;;;;;;5072205;28;20575;-71
2022/05/06 08:52:01;;;;;;;388.23;241.40;;;;;;;;;;5068490;28;20502;-70
2022/05/06 08:54:33;;;;;;;415.23;234.50;;;;;;;;;;5071441;28;20492;-70
2022/05/06 08:57:04;;;;;;;341.37;221.97;;;;;;;;;;5078498;28;20511;-70
2022/05/06 08:59:32;;;;;;;394.97;222.13;;;;;;;;;;5061440;28;20458;-70
2022/05/06 09:02:15;;;;;;;391.27;236.80;;;;;;;;;;5063218;28;20472;-70
2022/05/06 09:04:44;;;;;;;344.53;255.00;;;;;;;;;;5061026;28;20484;-70
2022/05/06 09:07:22;;;;;;;397.13;231.43;;;;;;;;;;5070216;28;20617;-69
2022/05/06 09:10:14;;;;;;;403.80;241.37;;;;;;;;;;5073389;28;20486;-70
2022/05/06 09:12:46;;;;;;;423.30;241.23;;;;;;;;;;5067838;28;20935;-71
2022/05/06 09:18:09;;;;;;;323.67;276.90;;;;;;;;;;5072030;28;21077;-71
2022/05/06 09:20:45;;;;;;;344.70;253.73;;;;;;;;;;5076526;28;20456;-70
2022/05/06 09:23:28;;;;;;;414.63;245.40;;;;;;;;;;5071183;28;21066;-72
2022/05/06 09:25:59;;;;;;;404.17;275.87;;;;;;;;;;5068151;28;20479;-72
2022/05/06 09:28:30;;;;;;;416.67;277.97;;;;;;;;;;5066658;28;20933;-72
2022/05/06 09:31:02;;;;;;;374.87;265.20;;;;;;;;;;5062293;28;20465;-71
2022/05/06 09:33:30;;;;;;;411.97;260.50;;;;;;;;;;5059097;28;20452;-73
2022/05/06 09:36:22;;;;;;;392.77;252.27;;;;;;;;;;5057874;28;20461;-73
2022/05/06 09:39:04;;;;;;;415.97;274.70;;;;;;;;;;5071172;28;20448;-74
2022/05/06 09:41:32;;;;;;;416.47;260.70;;;;;;;;;;5070722;28;20861;-73
2022/05/06 09:44:01;;;;;;;420.20;302.93;;;;;;;;;;5071073;28;20480;-73
2022/05/06 09:46:31;;;;;;;423.57;269.53;;;;;;;;;;5070228;28;20477;-73
2022/05/06 09:49:00;;;;;;;414.53;337.40;;;;;;;;;;5068051;28;20467;-72
2022/05/06 09:51:33;;;;;;;420.60;331.23;;;;;;;;;;5074198;28;20464;-73
2022/05/06 09:54:02;;;;;;;414.27;340.23;;;;;;;;;;5078043;28;20803;-74
2022/05/06 09:56:33;;;;;;;394.97;339.23;;;;;;;;;;5079025;28;20851;-71
2022/05/06 09:59:05;;;;;;;365.83;309.87;;;;;;;;;;5052937;28;20544;-73
2022/05/06 10:02:04;;;;;;;;;;;;;;;;;;;;;
2022/05/06 10:04:44;;;;;;;409.37;269.13;;;;;;;;;;5068430;28;20905;-73
2022/05/06 10:07:15;;;;;;;421.17;301.90;;;;;;;;;;5068213;28;20715;-72
2022/05/06 10:09:51;;;;;;;405.53;287.83;;;;;;;;;;5047517;28;20466;-71
2022/05/06 10:12:28;;;;;;;424.37;335.83;;;;;;;;;;5058949;28;20841;-73
2022/05/06 10:15:18;;;;;;;418.17;342.43;;;;;;;;;;5070588;28;20456;-72
2022/05/06 10:18:23;;;;;;;;;;;;;;;;;;;;;
2022/05/06 10:21:04;;;;;;;404.50;344.53;;;;;;;;;;5057411;28;20452;-72
2022/05/06 10:23:55;;;;;;;410.47;302.53;;;;;;;;;;5069438;28;20544;-73
2022/05/06 10:26:45;;;;;;;386.57;344.07;;;;;;;;;;5072595;28;20749;-73
2022/05/06 10:32:31;;;;;;;427.20;293.20;;;;;;;;;;5071034;28;20447;-72
2022/05/06 10:35:20;;;;;;;426.53;275.57;;;;;;;;;;5077258;28;20484;-73
2022/05/06 10:37:53;;;;;;;417.37;302.50;;;;;;;;;;5067792;28;20453;-71
2022/05/06 10:40:32;;;;;;;433.90;275.60;;;;;;;;;;5074250;28;20472;-71
2022/05/06 10:43:04;;;;;;;416.73;270.53;;;;;;;;;;5074319;28;20463;-71
2022/05/06 10:45:42;;;;;;;432.73;270.70;;;;;;;;;;5066323;28;20583;-71
2022/05/06 10:48:22;;;;;;;390.80;293.07;;;;;;;;;;5071171;28;20471;-71
2022/05/06 10:50:50;;;;;;;399.40;283.07;;;;;;;;;;5072156;28;20471;-71
2022/05/06 10:53:32;;;;;;;375.57;301.13;;;;;;;;;;5067873;28;20880;-71
2022/05/06 10:56:02;;;;;;;415.63;280.63;;;;;;;;;;5067511;28;20515;-71
2022/05/06 10:58:40;;;;;;;331.73;298.33;;;;;;;;;;5076980;28;20461;-71
2022/05/06 11:01:08;;;;;;;310.53;276.50;;;;;;;;;;5059490;28;20831;-69
2022/05/06 11:03:36;;;;;;;320.93;266.43;;;;;;;;;;5075153;28;20520;-71
2022/05/06 11:06:04;;;;;;;340.47;303.17;;;;;;;;;;5068995;28;20471;-72
2022/05/06 11:08:35;;;;;;;423.97;279.43;;;;;;;;;;5071806;28;20464;-72
2022/05/06 11:11:19;;;;;;;426.77;299.43;;;;;;;;;;5066106;28;20460;-72
2022/05/06 11:13:49;;;;;;;361.73;324.93;;;;;;;;;;5065511;28;20473;-73
2022/05/06 11:16:29;;;;;;;365.97;331.07;;;;;;;;;;5068916;28;20539;-71
2022/05/06 11:25:02;;;;;;;341.13;304.67;;;;;;;;;;5016727;28;20536;-71
2022/05/06 11:27:36;;;;;;;423.87;325.73;;;;;;;;;;5061710;28;20922;-72
2022/05/06 11:30:04;;;;;;;428.30;278.77;;;;;;;;;;5071352;28;20518;-72
2022/05/06 11:32:32;;;;;;;435.13;295.00;;;;;;;;;;5071962;28;20457;-71
2022/05/06 11:35:01;;;;;;;396.47;356.60;;;;;;;;;;5072540;28;20479;-73
2022/05/06 11:37:30;;;;;;;369.17;330.53;;;;;;;;;;5058397;28;20465;-71
2022/05/06 11:40:18;;;;;;;379.53;336.73;;;;;;;;;;5065121;28;20477;-71
2022/05/06 11:42:48;;;;;;;435.97;339.80;;;;;;;;;;5056315;28;20886;-73
2022/05/06 11:48:07;;;;;;;387.53;346.47;;;;;;;;;;5060330;28;20587;-71
2022/05/06 11:50:35;;;;;;;366.60;324.33;;;;;;;;;;5064092;28;20460;-70
2022/05/06 11:53:06;;;;;;;392.33;352.67;;;;;;;;;;5070604;28;20452;-70
2022/05/06 11:55:40;;;;;;;410.80;341.90;;;;;;;;;;5067155;28;20453;-71
2022/05/06 11:58:13;;;;;;;345.40;305.63;;;;;;;;;;5072895;28;20954;-73
2022/05/06 12:00:41;;;;;;;386.63;347.40;;;;;;;;;;5073675;28;20479;-72
2022/05/06 12:03:13;;;;;;;392.60;353.50;;;;;;;;;;5073451;28;20453;-72
2022/05/06 12:05:42;;;;;;;412.53;347.80;;;;;;;;;;5069722;28;20508;-71
2022/05/06 12:08:11;;;;;;;438.73;361.27;;;;;;;;;;5070988;28;20930;-71
2022/05/06 12:10:40;;;;;;;438.20;379.30;;;;;;;;;;5072805;28;20564;-72
2022/05/06 12:13:09;;;;;;;448.37;364.00;;;;;;;;;;5070736;28;20468;-72
2022/05/06 12:15:40;;;;;;;435.77;327.50;;;;;;;;;;5069975;28;21081;-72
2022/05/06 12:18:09;;;;;;;442.50;355.17;;;;;;;;;;5080318;28;20468;-72
2022/05/06 12:20:47;;;;;;;392.57;351.23;;;;;;;;;;5073702;28;20471;-73
2022/05/06 12:23:29;;;;;;;374.10;335.77;;;;;;;;;;5072328;28;20464;-73
2022/05/06 12:25:58;;;;;;;435.10;388.60;;;;;;;;;;5071967;28;20456;-72
2022/05/06 12:28:27;;;;;;;422.07;380.50;;;;;;;;;;5068645;28;20464;-71
2022/05/06 12:31:11;;;;;;;435.63;382.03;;;;;;;;;;5066244;28;20771;-72
2022/05/06 12:33:46;;;;;;;424.10;304.53;;;;;;;;;;5051381;28;20576;-71
2022/05/06 12:36:20;;;;;;;432.13;351.43;;;;;;;;;;5065371;28;20479;-71
2022/05/06 12:38:51;;;;;;;431.00;304.70;;;;;;;;;;5072312;28;20465;-71
2022/05/06 12:41:20;;;;;;;379.43;330.43;;;;;;;;;;5071717;28;20888;-72
2022/05/06 12:43:57;;;;;;;410.60;312.57;;;;;;;;;;5073189;28;20522;-71
2022/05/06 12:46:30;;;;;;;424.40;378.30;;;;;;;;;;5071686;28;20521;-71
2022/05/06 12:51:47;;;;;;;400.30;354.50;;;;;;;;;;5064153;28;20436;-72
2022/05/06 12:54:15;;;;;;;432.57;352.83;;;;;;;;;;5071160;28;20464;-73
2022/05/06 12:56:48;;;;;;;426.50;302.57;;;;;;;;;;5064361;28;20461;-72
2022/05/06 12:59:16;;;;;;;443.00;339.37;;;;;;;;;;5071546;28;20469;-72
2022/05/06 13:01:46;;;;;;;427.87;314.83;;;;;;;;;;5071089;28;20464;-73
2022/05/06 13:04:14;;;;;;;405.27;354.73;;;;;;;;;;5071954;28;20476;-72
2022/05/06 13:06:42;;;;;;;430.10;361.40;;;;;;;;;;5070450;28;20880;-72
2022/05/06 13:09:10;;;;;;;451.30;402.93;;;;;;;;;;5071716;28;20445;-72
2022/05/06 13:11:38;;;;;;;450.43;378.27;;;;;;;;;;5072001;28;20464;-73
2022/05/06 13:14:06;;;;;;;442.67;384.33;;;;;;;;;;5071810;28;20547;-73
2022/05/06 13:16:34;;;;;;;446.67;397.97;;;;;;;;;;5072790;28;20979;-71
2022/05/06 13:19:17;;;;;;;440.00;396.10;;;;;;;;;;5072973;28;20876;-72
2022/05/06 13:21:47;;;;;;;499.27;444.83;;;;;;;;;;5071430;28;20878;-71
2022/05/06 13:24:31;;;;;;;462.03;411.50;;;;;;;;;;5071846;28;20472;-71
2022/05/06 13:26:59;;;;;;;478.67;427.77;;;;;;;;;;5070050;28;20512;-71
2022/05/06 13:29:27;;;;;;;500.33;455.53;;;;;;;;;;5071838;28;20546;-71
2022/05/06 13:31:55;;;;;;;451.77;411.53;;;;;;;;;;5070977;28;20539;-72
2022/05/06 13:34:34;;;;;;;489.00;444.40;;;;;;;;;;5076575;28;20454;-71
2022/05/06 13:37:05;;;;;;;451.77;411.73;;;;;;;;;;5074343;28;20473;-71
2022/05/06 13:39:38;;;;;;;475.50;432.50;;;;;;;;;;5076503;28;20464;-71
2022/05/06 13:42:06;;;;;;;477.93;435.37;;;;;;;;;;5081402;28;20478;-71
2022/05/06 13:44:34;;;;;;;473.33;429.93;;;;;;;;;;5076321;28;20520;-70
2022/05/06 13:47:06;;;;;;;439.37;394.90;;;;;;;;;;5059595;28;20457;-70
2022/05/06 13:49:49;;;;;;;488.83;440.83;;;;;;;;;;5072883;28;20453;-71
2022/05/06 14:04:00;;;;;;;453.57;407.67;;;;;;;;;;5026133;28;20496;-72
2022/05/06 14:06:31;;;;;;;456.93;408.93;;;;;;;;;;5077218;28;20472;-71
2022/05/06 14:09:00;;;;;;;406.07;361.47;;;;;;;;;;5084964;28;20455;-70
2022/05/06 14:11:32;;;;;;;435.13;387.43;;;;;;;;;;5075138;28;21481;-71
2022/05/06 14:14:01;;;;;;;423.70;368.20;;;;;;;;;;5079837;28;20555;-72
2022/05/06 14:16:32;;;;;;;450.73;401.27;;;;;;;;;;5078036;28;20483;-72
2022/05/06 14:19:02;;;;;;;433.00;366.37;;;;;;;;;;5075982;28;20475;-71
2022/05/06 14:21:35;;;;;;;436.23;393.97;;;;;;;;;;5069221;28;20448;-71
2022/05/06 14:24:03;;;;;;;462.60;412.30;;;;;;;;;;5076524;28;20551;-71
2022/05/06 14:26:32;;;;;;;486.47;434.67;;;;;;;;;;5075883;28;20539;-73
2022/05/06 14:29:03;;;;;;;469.07;417.90;;;;;;;;;;5078325;28;20560;-72
2022/05/06 14:31:34;;;;;;;490.77;441.00;;;;;;;;;;5079933;28;20915;-72
2022/05/06 14:34:05;;;;;;;452.40;399.33;;;;;;;;;;5076191;28;20468;-71
2022/05/06 14:36:35;;;;;;;483.37;438.20;;;;;;;;;;5068164;28;20468;-71
2022/05/06 14:39:15;;;;;;;458.00;405.87;;;;;;;;;;5066163;28;20497;-71
2022/05/06 14:41:43;;;;;;;452.60;397.03;;;;;;;;;;5061699;28;20551;-71
2022/05/06 14:44:12;;;;;;;453.20;400.80;;;;;;;;;;5062380;28;20458;-71
2022/05/06 14:46:43;;;;;;;445.70;397.03;;;;;;;;;;5064073;28;20892;-70
2022/05/06 14:49:16;;;;;;;437.30;396.90;;;;;;;;;;5075908;28;20457;-71
2022/05/06 14:51:46;;;;;;;493.23;449.43;;;;;;;;;;5081616;28;20467;-71
2022/05/06 14:54:21;;;;;;;467.53;424.17;;;;;;;;;;5076418;28;20748;-71
2022/05/06 14:56:52;;;;;;;432.50;389.20;;;;;;;;;;5075430;28;20547;-70
2022/05/06 14:59:20;;;;;;;463.57;420.43;;;;;;;;;;5066741;28;20460;-73
2022/05/06 15:01:55;;;;;;;443.23;384.97;;;;;;;;;;5079178;28;20453;-72
2022/05/06 15:04:30;;;;;;;442.70;364.73;;;;;;;;;;5061731;28;20461;-73
2022/05/06 15:07:03;;;;;;;461.00;411.30;;;;;;;;;;5073857;28;20449;-73
2022/05/06 15:09:38;;;;;;;473.90;423.67;;;;;;;;;;5059509;28;20745;-73
2022/05/06 15:12:06;;;;;;;449.67;401.03;;;;;;;;;;5070145;28;20987;-72
2022/05/06 15:14:38;;;;;;;467.97;422.10;;;;;;;;;;5073869;28;20445;-72
2022/05/06 15:17:14;;;;;;;458.47;408.70;;;;;;;;;;5074520;28;20448;-73
2022/05/06 15:19:42;;;;;;;458.20;417.67;;;;;;;;;;5073864;28;20463;-73
2022/05/06 15:22:17;;;;;;;485.27;441.67;;;;;;;;;;5073762;28;20448;-72
2022/05/06 15:24:50;;;;;;;494.13;449.63;;;;;;;;;;5072505;28;20519;-72
2022/05/06 15:27:21;;;;;;;478.40;434.10;;;;;;;;;;5072292;28;20549;-72
2022/05/06 15:29:50;;;;;;;438.50;396.53;;;;;;;;;;5073052;28;20464;-72
2022/05/06 15:32:20;;;;;;;446.67;405.43;;;;;;;;;;5065225;28;20484;-72
2022/05/06 15:34:48;;;;;;;467.33;425.63;;;;;;;;;;5072417;28;20875;-72